Flight Track Log - Related Links

Times and Time Zones

All times are in EDT time to prevent confusion due to time zone crossing. See the N649WM flight status page for this flight to view local times or setup timezone preferences in your user account.

Time Position Orientation Groundspeed Altitude Reporting Facility
EDT Latitude Longitude Course Direction KTS MPH feet Rate Location/Type
Tue 07:01:35 PM 33.0753 -98.6728 102° East 183 211 11,500  Level Fort Worth Center
Tue 07:02:35 PM 33.0656 -98.6181 102° East 183 211 11,500  Level Fort Worth Center
Tue 07:03:35 PM 33.0494 -98.5558 107° East 183 211 11,500  Level Fort Worth Center
Tue 07:04:35 PM 33.0353 -98.4989 107° East 183 211 11,500  Level Fort Worth Center
Tue 07:05:35 PM 33.0253 -98.4442 102° East 183 211 11,500  Level Fort Worth Center
Tue 07:06:35 PM 33.0111 -98.3819 105° East 183 211 11,500  Level Fort Worth Center
Tue 07:07:35 PM 33.0011 -98.3275 102° East 183 211 11,500  Level Fort Worth Center
Tue 07:08:35 PM 32.9869 -98.2678 106° East 183 211 11,500  Level Fort Worth Center
Tue 07:09:35 PM 32.9769 -98.2108 102° East 183 211 11,500  Level Fort Worth Center
Tue 07:10:35 PM 32.9628 -98.1489 105° East 183 211 11,500  Level Fort Worth Center
Tue 07:11:35 PM 32.9650 -98.1017 87° East 171 197 11,500  Level Fort Worth Center
Tue 07:12:35 PM 33.0111 -98.0847 17° North 135 155 11,500  Level Fort Worth Center
Tue 07:13:35 PM 33.0486 -98.0653 23° Northeast 148 170 11,500  Level Fort Worth Center
Tue 07:14:35 PM 33.0697 -98.0233 59° Northeast 128 147 11,500  Level Fort Worth Center
Tue 07:15:35 PM 33.0492 -97.9711 115° Southeast 145 167 11,500  Level Fort Worth Center
Tue 07:16:35 PM 33.0286 -97.9089 111° Southeast 168 193 11,500 -50 Level Fort Worth Center
Tue 07:17:35 PM 33.0142 -97.8594 109° East 180 207 11,400 -600 Descending Fort Worth Center
Tue 07:18:35 PM 32.9894 -97.7900 113° Southeast 194 223 10,300 -1,050 Descending Fort Worth Center
Tue 07:19:35 PM 32.9708 -97.7328 111° Southeast 194 223 9,300 -1,200 Descending Fort Worth Center
Tue 07:20:35 PM 32.9478 -97.6658 112° Southeast 194 223 7,900 -1,400 Descending Fort Worth Center
Tue 07:21:35 PM 32.9333 -97.6189 110° East 182 209 6,500 -1,300 Descending Fort Worth Center
Tue 07:22:35 PM 32.9106 -97.5742 121° Southeast 160 184 5,300 -1,150 Descending Fort Worth Center
Tue 07:23:35 PM 32.8814 -97.5125 119° Southeast 182 209 4,200 -800 Descending Fort Worth Center
Tue 07:24:35 PM 32.8522 -97.4581 123° Southeast 189 217 3,700 -350 Descending Fort Worth Center
Tue 07:25:35 PM 32.8250 -97.4061 122° Southeast 189 217 3,500 -100 Descending Fort Worth Center
Tue 07:26:35 PM 32.8000 -97.3567 121° Southeast 183 211 3,500  Level Fort Worth Center
Tue 07:27:35 PM 32.7750 -97.3072 121° Southeast 183 211 3,500  Level Fort Worth Center
Tue 07:28:35 PM 32.7497 -97.2603 123° Southeast 178 205 3,500 -200 Level Fort Worth Center
Tue 07:29:35 PM 32.7225 -97.2083 122° Southeast 178 205 3,100 -400 Descending Fort Worth Center
Tue 07:30:35 PM 32.6953 -97.1542 121° Southeast 185 213 2,700 -295 Descending Fort Worth Center
Tue 07:31:37 PM 32.6833 -97.0833 101° East 182 209 2,500 -98 Descending Dallas / Fort Worth TRACON
Tue 07:32:37 PM 32.6833 -97.0333 90° East 174 200 2,500  Level Dallas / Fort Worth TRACON
Tue 07:33:37 PM 32.6833 -96.9833 90° East 177 204 2,500 -100 Level Dallas / Fort Worth TRACON
Tue 07:34:37 PM 32.6833 -96.9167 90° East 179 206 2,300 -381 Descending Dallas / Fort Worth TRACON
Tue 07:35:43 PM 32.6500 -96.8833 140° Southeast 138 159 1,700 -545 Descending Dallas / Fort Worth TRACON
Tue 07:37:00 PM 32.6724 -96.8610 40° Northeast  Level FlightAware Approximate
Tue 07:44:00 PM 32.6667 -96.8667 164° South  Level FlightAware Approximate
Tue 07:45:00 PM 32.6809 -96.8682 164° South  Level Estimated

Login

Don't have an account? Register now (free) for customized features, flight alerts, and more!